createdAt,value
2023-01-13T00:00:28.651Z,93.2
2023-01-13T00:03:28.694Z,93.2
2023-01-13T00:06:31.693Z,93.1
2023-01-13T00:09:32.558Z,93.1
2023-01-13T00:12:28.495Z,93.1
2023-01-13T00:15:28.867Z,93.1
2023-01-13T00:18:31.921Z,92.9
2023-01-13T00:21:28.550Z,92.9
2023-01-13T00:24:28.757Z,92.9
2023-01-13T00:27:31.988Z,92.6
2023-01-13T00:30:28.400Z,92.6
2023-01-13T00:33:28.527Z,92.6
2023-01-13T00:36:31.473Z,92.4
2023-01-13T00:39:28.193Z,92.4
2023-01-13T00:42:29.039Z,92.4
2023-01-13T00:45:28.956Z,92.4
2023-01-13T00:48:56.082Z,92.2
2023-01-13T00:51:28.804Z,92.2
2023-01-13T00:54:28.736Z,92.2
2023-01-13T00:57:31.507Z,92
2023-01-13T01:00:28.877Z,92
2023-01-13T01:03:29.061Z,92
2023-01-13T01:06:31.893Z,91.8
2023-01-13T01:09:28.102Z,91.8
2023-01-13T01:12:28.987Z,91.8
2023-01-13T01:15:32.032Z,91.7
2023-01-13T01:18:28.300Z,91.7
2023-01-13T01:21:28.307Z,91.7
2023-01-13T01:24:31.268Z,91.6
2023-01-13T01:27:28.597Z,91.6
2023-01-13T01:30:28.607Z,91.6
2023-01-13T01:33:28.796Z,91.6
2023-01-13T01:36:31.852Z,91.7
2023-01-13T01:39:28.380Z,91.7
2023-01-13T01:42:28.452Z,91.7
2023-01-13T01:45:31.429Z,91.9
2023-01-13T01:48:28.905Z,91.9
2023-01-13T01:51:28.980Z,91.9
2023-01-13T01:54:32.127Z,91.8
2023-01-13T01:57:28.532Z,91.8
2023-01-13T02:00:28.652Z,91.8
2023-01-13T02:03:31.706Z,91.6
2023-01-13T02:06:28.830Z,91.6
2023-01-13T02:09:28.991Z,91.6
2023-01-13T02:12:29.148Z,91.6
2023-01-13T02:15:31.360Z,91.4
2023-01-13T02:18:28.917Z,91.4
2023-01-13T02:21:28.706Z,91.4
2023-01-13T02:24:32.031Z,91.3
2023-01-13T02:27:29.289Z,91.3
2023-01-13T02:30:28.930Z,91.3
2023-01-13T02:33:31.898Z,91
2023-01-13T02:36:28.313Z,91
2023-01-13T02:39:28.292Z,91
2023-01-13T02:42:31.354Z,90.7
2023-01-13T02:45:28.954Z,90.7
2023-01-13T02:48:28.980Z,90.7
2023-01-13T02:51:28.952Z,90.7
2023-01-13T02:54:31.761Z,90.4
2023-01-13T02:57:28.360Z,90.4
2023-01-13T03:00:28.528Z,90.4
2023-01-13T03:03:31.771Z,90
2023-01-13T03:06:28.287Z,90
2023-01-13T03:09:28.384Z,90
2023-01-13T03:12:31.359Z,89.8
2023-01-13T03:15:28.939Z,89.8
2023-01-13T03:18:28.926Z,89.8
2023-01-13T03:21:32.001Z,89.7
2023-01-13T03:24:28.768Z,89.7
2023-01-13T03:27:28.833Z,89.7
2023-01-13T03:30:29.437Z,89.7
2023-01-13T03:33:31.907Z,89.5
2023-01-13T03:36:28.580Z,89.5
2023-01-13T03:39:28.781Z,89.5
2023-01-13T03:42:31.709Z,89.3
2023-01-13T03:45:29.278Z,89.3
2023-01-13T03:48:28.303Z,89.3
2023-01-13T03:51:31.290Z,89
2023-01-13T03:54:28.697Z,89
2023-01-13T03:57:28.784Z,89
2023-01-13T04:00:32.266Z,88.5
2023-01-13T04:03:29.146Z,88.5
2023-01-13T04:06:28.289Z,88.5
2023-01-13T04:09:28.270Z,88.5
2023-01-13T04:12:31.222Z,87.8
2023-01-13T04:15:29.104Z,87.8
2023-01-13T04:18:28.507Z,87.8
2023-01-13T04:21:31.841Z,87.1
2023-01-13T04:24:28.223Z,87.1
2023-01-13T04:27:28.389Z,87.1
2023-01-13T04:30:32.449Z,86.5
2023-01-13T04:33:28.657Z,86.5
2023-01-13T04:36:28.616Z,86.5
2023-01-13T04:39:31.456Z,86.1
2023-01-13T04:42:28.841Z,86.1
2023-01-13T04:45:29.015Z,86.1
2023-01-13T04:48:28.774Z,86.1
2023-01-13T04:51:31.644Z,85.8
2023-01-13T04:54:28.225Z,85.8
2023-01-13T04:57:28.251Z,85.8
2023-01-13T05:00:31.446Z,85.5
2023-01-13T05:03:29.249Z,85.5
2023-01-13T05:06:28.471Z,85.5
2023-01-13T05:09:32.070Z,85.3
2023-01-13T05:12:28.848Z,85.3
2023-01-13T05:15:28.135Z,85.3
2023-01-13T05:18:32.150Z,85.4
2023-01-13T05:21:28.891Z,85.4
2023-01-13T05:24:28.633Z,85.4
2023-01-13T05:27:29.001Z,85.4
2023-01-13T05:30:32.126Z,85.9
2023-01-13T05:33:28.624Z,85.9
2023-01-13T05:36:28.376Z,85.9
2023-01-13T05:39:31.725Z,86.4
2023-01-13T05:42:28.636Z,86.4
2023-01-13T05:45:28.998Z,86.4
2023-01-13T05:48:31.974Z,86.8
2023-01-13T05:51:28.884Z,86.8
2023-01-13T05:54:28.604Z,86.8
2023-01-13T05:57:31.339Z,87
2023-01-13T06:00:28.804Z,87
2023-01-13T06:03:30.065Z,87
2023-01-13T06:06:28.953Z,87
2023-01-13T06:09:31.995Z,87.1
2023-01-13T06:12:29.141Z,87.1
2023-01-13T06:15:28.565Z,87.1
2023-01-13T06:18:31.789Z,87.2
2023-01-13T06:21:28.727Z,87.2
2023-01-13T06:24:29.226Z,87.2
2023-01-13T06:27:31.682Z,87.2
2023-01-13T06:30:28.852Z,87.2
2023-01-13T06:33:28.482Z,87.2
2023-01-13T06:36:31.608Z,87.2
2023-01-13T06:39:28.250Z,87.2
2023-01-13T06:42:48.117Z,87.2
2023-01-13T06:45:28.303Z,87.2
2023-01-13T06:48:31.475Z,87.1
2023-01-13T06:51:29.097Z,87.1
2023-01-13T06:54:28.469Z,87.1
2023-01-13T06:57:31.549Z,86.9
2023-01-13T07:00:29.175Z,86.9
2023-01-13T07:03:29.251Z,86.9
2023-01-13T07:06:31.638Z,86.6
2023-01-13T07:09:28.706Z,86.6
2023-01-13T07:12:28.703Z,86.6
2023-01-13T07:15:32.035Z,86.5
2023-01-13T07:18:28.880Z,86.5
2023-01-13T07:21:28.862Z,86.5
2023-01-13T07:24:28.731Z,86.5
2023-01-13T07:27:32.095Z,86.3
2023-01-13T07:30:28.724Z,86.3
2023-01-13T07:33:29.126Z,86.3
2023-01-13T07:36:31.413Z,86.1
2023-01-13T07:39:29.130Z,86.1
2023-01-13T07:42:29.164Z,86.1
2023-01-13T07:45:32.450Z,85.8
2023-01-13T07:48:29.161Z,85.8
2023-01-13T07:51:28.540Z,85.8
2023-01-13T07:54:44.782Z,85.5
2023-01-13T07:57:29.149Z,85.5
2023-01-13T08:00:28.914Z,85.5
2023-01-13T08:03:29.124Z,85.5
2023-01-13T08:06:31.860Z,85.2
2023-01-13T08:09:28.776Z,85.2
2023-01-13T08:12:29.463Z,85.2
2023-01-13T08:15:32.005Z,84.9
2023-01-13T08:18:28.668Z,84.9
2023-01-13T08:21:28.913Z,84.9
2023-01-13T08:24:32.379Z,84.6
2023-01-13T08:27:29.045Z,84.6
2023-01-13T08:30:30.173Z,84.6
2023-01-13T08:33:32.087Z,84.2
2023-01-13T08:36:28.683Z,84.2
2023-01-13T08:39:28.364Z,84.2
2023-01-13T08:42:28.744Z,84.2
2023-01-13T08:45:32.122Z,83.8
2023-01-13T08:48:32.217Z,83.8
2023-01-13T08:51:28.502Z,83.8
2023-01-13T08:54:31.861Z,83.3
2023-01-13T08:57:28.955Z,83.3
2023-01-13T09:00:28.987Z,83.3
2023-01-13T09:03:31.187Z,82.9
2023-01-13T09:06:29.188Z,82.9
2023-01-13T09:09:28.716Z,82.9
2023-01-13T09:12:31.429Z,82.4
2023-01-13T09:15:30.243Z,82.4
2023-01-13T09:18:28.900Z,82.4
2023-01-13T09:21:28.944Z,82.4
2023-01-13T09:24:32.188Z,81.9
2023-01-13T09:27:28.931Z,81.9
2023-01-13T09:30:29.033Z,81.9
2023-01-13T09:33:31.563Z,81.4
2023-01-13T09:36:28.541Z,81.4
2023-01-13T09:39:28.804Z,81.4
2023-01-13T09:42:32.157Z,81
2023-01-13T09:45:29.023Z,81
2023-01-13T09:48:29.276Z,81
2023-01-13T09:51:32.118Z,80.7
2023-01-13T09:54:28.350Z,80.7
2023-01-13T09:57:28.588Z,80.7
2023-01-13T10:00:28.768Z,80.7
2023-01-13T10:03:32.369Z,80.4
2023-01-13T10:06:28.372Z,80.4
2023-01-13T10:09:28.859Z,80.4
2023-01-13T10:12:32.261Z,80.1
2023-01-13T10:15:28.809Z,80.1
2023-01-13T10:18:28.817Z,80.1
2023-01-13T10:21:31.268Z,79.9
2023-01-13T10:24:28.986Z,79.9
2023-01-13T10:27:28.266Z,79.9
2023-01-13T10:30:31.747Z,79.7
2023-01-13T10:33:28.813Z,79.7
2023-01-13T10:36:28.493Z,79.7
2023-01-13T10:39:28.728Z,79.7
2023-01-13T10:42:31.897Z,79.5
2023-01-13T10:45:28.649Z,79.5
2023-01-13T10:48:28.889Z,79.5
2023-01-13T10:51:32.411Z,79.3
2023-01-13T10:54:28.723Z,79.3
2023-01-13T10:57:28.764Z,79.3
2023-01-13T11:00:32.148Z,79.1
2023-01-13T11:03:29.076Z,79.1
2023-01-13T11:06:29.325Z,79.1
2023-01-13T11:09:31.597Z,78.9
2023-01-13T11:12:29.219Z,78.9
2023-01-13T11:15:28.513Z,78.9
2023-01-13T11:18:28.772Z,78.9
2023-01-13T11:21:32.184Z,78.7
2023-01-13T11:24:29.018Z,78.7
2023-01-13T11:27:29.251Z,78.7
2023-01-13T11:30:31.632Z,78.7
2023-01-13T11:33:28.456Z,78.7
2023-01-13T11:36:28.905Z,78.7
2023-01-13T11:39:32.118Z,78.7
2023-01-13T11:42:28.835Z,78.7
2023-01-13T11:45:29.289Z,78.7
2023-01-13T11:48:31.572Z,79
2023-01-13T11:51:28.508Z,79
2023-01-13T11:54:29.001Z,79
2023-01-13T11:57:29.256Z,79
2023-01-13T12:00:31.931Z,79.5
2023-01-13T12:03:29.035Z,79.5
2023-01-13T12:06:28.426Z,79.5
2023-01-13T12:09:31.631Z,80.2
2023-01-13T12:12:28.345Z,80.2
2023-01-13T12:15:28.403Z,80.2
2023-01-13T12:18:31.625Z,80.8
2023-01-13T12:21:28.434Z,80.8
2023-01-13T12:24:28.719Z,80.8
2023-01-13T12:27:32.079Z,81.7
2023-01-13T12:30:29.241Z,81.7
2023-01-13T12:33:28.428Z,81.7
2023-01-13T12:36:31.423Z,81.7
2023-01-13T12:40:31.481Z,82.6
2023-01-13T12:42:28.786Z,82.6
2023-01-13T12:45:29.148Z,82.6
2023-01-13T12:48:32.364Z,83.6
2023-01-13T12:51:28.660Z,83.6
2023-01-13T12:54:28.782Z,83.6
2023-01-13T12:57:31.857Z,84.7
2023-01-13T13:00:28.750Z,84.7
2023-01-13T13:03:29.007Z,84.7
2023-01-13T13:06:31.988Z,85.8
2023-01-13T13:09:28.680Z,85.8
2023-01-13T13:12:28.582Z,85.8
2023-01-13T13:15:31.615Z,86.7
2023-01-13T13:18:29.075Z,86.7
2023-01-13T13:21:28.312Z,86.7
2023-01-13T13:24:28.579Z,86.7
2023-01-13T13:27:31.585Z,87.5
2023-01-13T13:30:28.493Z,87.5
2023-01-13T13:33:28.348Z,87.5
2023-01-13T13:36:31.570Z,88.2
2023-01-13T13:39:30.248Z,88.2
2023-01-13T13:42:28.286Z,88.2
2023-01-13T13:45:31.399Z,88.7
2023-01-13T13:48:29.325Z,88.7
2023-01-13T13:51:28.568Z,88.7
2023-01-13T13:54:31.871Z,89
2023-01-13T13:57:28.626Z,89
2023-01-13T14:00:28.794Z,89
2023-01-13T14:03:29.029Z,89
2023-01-13T14:06:31.357Z,89.1
2023-01-13T14:09:28.935Z,89.1
2023-01-13T14:12:29.035Z,89.1
2023-01-13T14:15:31.673Z,88.9
2023-01-13T14:18:28.904Z,88.9
2023-01-13T14:21:29.100Z,88.9
2023-01-13T14:24:31.147Z,88.5
2023-01-13T14:27:28.740Z,88.5
2023-01-13T14:30:28.703Z,88.5
2023-01-13T14:33:31.474Z,88.1
2023-01-13T14:36:28.294Z,88.1
2023-01-13T14:39:28.184Z,88.1
2023-01-13T14:42:28.589Z,88.1
2023-01-13T14:45:31.819Z,87.8
2023-01-13T14:48:28.639Z,87.8
2023-01-13T14:51:28.834Z,87.8
2023-01-13T14:54:32.169Z,87.8
2023-01-13T14:57:28.885Z,87.8
2023-01-13T15:00:32.690Z,87.8
2023-01-13T15:03:42.826Z,87.8
2023-01-13T15:06:28.339Z,87.8
2023-01-13T15:09:28.539Z,87.8
2023-01-13T15:12:32.053Z,87.7
2023-01-13T15:15:29.035Z,87.7
2023-01-13T15:18:29.004Z,87.7
2023-01-13T15:21:29.145Z,87.7
2023-01-13T15:24:32.350Z,87.8
2023-01-13T15:27:29.111Z,87.8
2023-01-13T15:30:30.334Z,87.8
2023-01-13T15:33:31.375Z,88.2
2023-01-13T15:36:28.594Z,88.2
2023-01-13T15:39:28.700Z,88.2
2023-01-13T15:42:31.249Z,88.5
2023-01-13T15:45:28.877Z,88.5
2023-01-13T15:48:28.955Z,88.5
2023-01-13T15:51:32.035Z,88.8
2023-01-13T15:54:28.427Z,88.8
2023-01-13T15:57:28.607Z,88.8
2023-01-13T16:00:36.616Z,88.8
2023-01-13T16:03:31.945Z,88.8
2023-01-13T16:06:29.264Z,88.8
2023-01-13T16:09:28.535Z,88.8
2023-01-13T16:12:31.693Z,88.4
2023-01-13T16:15:28.420Z,88.4
2023-01-13T16:18:28.288Z,88.4
2023-01-13T16:21:31.680Z,88.3
2023-01-13T16:24:28.513Z,88.3
2023-01-13T16:27:29.186Z,88.3
2023-01-13T16:30:39.013Z,88.4
2023-01-13T16:33:28.785Z,88.4
2023-01-13T16:36:30.610Z,88.4
2023-01-13T16:39:28.736Z,88.4
2023-01-13T16:42:32.021Z,88.5
2023-01-13T16:45:29.133Z,88.5
2023-01-13T16:48:28.489Z,88.5
2023-01-13T16:51:31.731Z,88.7
2023-01-13T16:54:28.793Z,88.7
2023-01-13T16:57:28.671Z,88.7
2023-01-13T17:00:31.950Z,89
2023-01-13T17:03:29.499Z,89
2023-01-13T17:06:28.837Z,89
2023-01-13T17:09:32.588Z,89.5
2023-01-13T17:12:29.193Z,89.5
2023-01-13T17:15:29.025Z,89.5
2023-01-13T17:18:28.537Z,89.5
2023-01-13T17:21:31.666Z,89.9
2023-01-13T17:24:29.195Z,89.9
2023-01-13T17:27:29.178Z,89.9
2023-01-13T17:30:31.293Z,90.3
2023-01-13T17:33:28.584Z,90.3
2023-01-13T17:36:28.290Z,90.3
2023-01-13T17:39:32.063Z,90.6
2023-01-13T17:42:28.963Z,90.6
2023-01-13T17:45:28.636Z,90.6
2023-01-13T17:48:32.147Z,90.7
2023-01-13T17:51:28.759Z,90.7
2023-01-13T17:54:29.088Z,90.7
2023-01-13T17:57:29.202Z,90.7
2023-01-13T18:00:32.175Z,90.6
2023-01-13T18:03:28.427Z,90.6
2023-01-13T18:06:29.025Z,90.6
2023-01-13T18:09:31.506Z,90.4
2023-01-13T18:12:28.061Z,90.4
2023-01-13T18:15:29.082Z,90.4
2023-01-13T18:18:32.517Z,90.3
2023-01-13T18:21:29.145Z,90.3
2023-01-13T18:24:28.951Z,90.3
2023-01-13T18:27:31.777Z,90.1
2023-01-13T18:30:29.079Z,90.1
2023-01-13T18:33:28.826Z,90.1
2023-01-13T18:36:28.824Z,90.1
2023-01-13T18:39:31.673Z,89.9
2023-01-13T18:42:28.915Z,89.9
2023-01-13T18:45:28.299Z,89.9
2023-01-13T18:48:31.393Z,89.8
2023-01-13T18:51:28.585Z,89.8
2023-01-13T18:54:28.744Z,89.8
2023-01-13T18:57:31.964Z,89.7
2023-01-13T19:00:30.070Z,89.7
2023-01-13T19:03:30.965Z,89.7
2023-01-13T19:06:34.697Z,89.6
2023-01-13T19:09:28.274Z,89.6
2023-01-13T19:12:28.236Z,89.6
2023-01-13T19:15:28.689Z,89.6
2023-01-13T19:18:31.143Z,89.4
2023-01-13T19:21:28.445Z,89.4
2023-01-13T19:24:28.419Z,89.4
2023-01-13T19:27:31.427Z,89.3
2023-01-13T19:30:28.857Z,89.3
2023-01-13T19:33:28.911Z,89.3
2023-01-13T19:36:32.076Z,89.1
2023-01-13T19:39:28.272Z,89.1
2023-01-13T19:42:28.273Z,89.1
2023-01-13T19:45:32.085Z,88.8
2023-01-13T19:48:28.603Z,88.8
2023-01-13T19:51:28.599Z,88.8
2023-01-13T19:54:28.942Z,88.8
2023-01-13T19:57:31.656Z,88.6
2023-01-13T20:00:28.725Z,88.6
2023-01-13T20:03:31.219Z,88.6
2023-01-13T20:06:31.115Z,88.5
2023-01-13T20:09:28.591Z,88.5
2023-01-13T20:12:28.256Z,88.5
2023-01-13T20:15:31.237Z,88.5
2023-01-13T20:18:29.091Z,88.5
2023-01-13T20:21:28.146Z,88.5
2023-01-13T20:24:31.922Z,88.5
2023-01-13T20:27:28.916Z,88.5
2023-01-13T20:30:29.169Z,88.5
2023-01-13T20:33:28.515Z,88.5
2023-01-13T20:36:32.247Z,88.5
2023-01-13T20:39:28.125Z,88.5
2023-01-13T20:42:28.942Z,88.5
2023-01-13T20:45:32.057Z,88.4
2023-01-13T20:48:28.064Z,88.4
2023-01-13T20:51:28.768Z,88.4
2023-01-13T20:54:31.759Z,88.2
2023-01-13T20:57:28.986Z,88.2
2023-01-13T21:00:29.113Z,88.2
2023-01-13T21:03:31.344Z,88.3
2023-01-13T21:06:28.951Z,88.3
2023-01-13T21:09:28.410Z,88.3
2023-01-13T21:12:29.017Z,88.3
2023-01-13T21:15:31.198Z,88.4
2023-01-13T21:18:28.212Z,88.4
2023-01-13T21:21:28.986Z,88.4
2023-01-13T21:24:31.243Z,88.4
2023-01-13T21:27:28.487Z,88.4
2023-01-13T21:30:48.076Z,88.4
2023-01-13T21:33:31.455Z,88.6
2023-01-13T21:36:35.584Z,88.6
2023-01-13T21:39:28.693Z,88.6
2023-01-13T21:42:31.895Z,88.7
2023-01-13T21:45:29.292Z,88.7
2023-01-13T21:48:28.623Z,88.7
2023-01-13T21:51:28.694Z,88.7
2023-01-13T21:54:42.299Z,89
2023-01-13T21:57:28.411Z,89
2023-01-13T22:00:29.031Z,89
2023-01-13T22:03:31.805Z,89.4
2023-01-13T22:06:28.413Z,89.4
2023-01-13T22:09:28.489Z,89.4
2023-01-13T22:12:31.798Z,89.7
2023-01-13T22:15:28.438Z,89.7
2023-01-13T22:18:28.476Z,89.7
2023-01-13T22:21:31.491Z,89.9
2023-01-13T22:24:28.975Z,89.9
2023-01-13T22:27:28.870Z,89.9
2023-01-13T22:30:30.235Z,89.9
2023-01-13T22:33:32.122Z,90
2023-01-13T22:36:28.778Z,90
2023-01-13T22:39:28.830Z,90
2023-01-13T22:42:31.654Z,90.1
2023-01-13T22:45:28.606Z,90.1
2023-01-13T22:48:28.902Z,90.1
2023-01-13T22:51:32.008Z,90.2
2023-01-13T22:54:28.813Z,90.2
2023-01-13T22:57:48.597Z,90.2
2023-01-13T23:00:37.206Z,90.2
2023-01-13T23:03:29.325Z,90.2
2023-01-13T23:06:28.218Z,90.2
2023-01-13T23:09:28.829Z,90.2
2023-01-13T23:12:31.850Z,90.1
2023-01-13T23:15:28.180Z,90.1
2023-01-13T23:18:28.240Z,90.1
2023-01-13T23:21:32.022Z,90.1
2023-01-13T23:24:28.668Z,90.1
2023-01-13T23:27:28.602Z,90.1
2023-01-13T23:30:32.737Z,90
2023-01-13T23:33:28.707Z,90
2023-01-13T23:36:28.845Z,90
2023-01-13T23:39:31.910Z,90
2023-01-13T23:42:28.689Z,90
2023-01-13T23:45:28.609Z,90
2023-01-13T23:48:28.807Z,90
2023-01-13T23:51:31.133Z,90
2023-01-13T23:54:28.975Z,90
2023-01-13T23:57:29.296Z,90
